sensor_id;sensor_type;location;lat;lon;timestamp;pressure;altitude;pressure_sealevel;temperature;humidity
44027;BME280;29696;55.698;37.460;2023-07-30T00:02:07;98524.91;;;14.09;99.02
44027;BME280;29696;55.698;37.460;2023-07-30T00:04:33;98526.91;;;14.07;99.09
44027;BME280;29696;55.698;37.460;2023-07-30T00:07:00;98534.50;;;14.10;99.32
44027;BME280;29696;55.698;37.460;2023-07-30T00:09:26;98526.38;;;14.12;99.43
44027;BME280;29696;55.698;37.460;2023-07-30T00:11:52;98523.88;;;14.10;99.45
44027;BME280;29696;55.698;37.460;2023-07-30T00:14:19;98528.81;;;14.13;99.42
44027;BME280;29696;55.698;37.460;2023-07-30T00:16:45;98535.78;;;14.14;99.41
44027;BME280;29696;55.698;37.460;2023-07-30T00:19:12;98530.81;;;14.11;99.29
44027;BME280;29696;55.698;37.460;2023-07-30T00:21:38;98513.41;;;14.09;99.16
44027;BME280;29696;55.698;37.460;2023-07-30T00:24:04;98526.16;;;14.13;99.13
44027;BME280;29696;55.698;37.460;2023-07-30T00:26:31;98525.50;;;14.11;99.07
44027;BME280;29696;55.698;37.460;2023-07-30T00:28:57;98530.22;;;14.09;98.95
44027;BME280;29696;55.698;37.460;2023-07-30T00:31:23;98523.22;;;14.08;98.94
44027;BME280;29696;55.698;37.460;2023-07-30T00:33:50;98528.53;;;14.08;98.76
44027;BME280;29696;55.698;37.460;2023-07-30T00:36:16;98524.41;;;14.06;98.77
44027;BME280;29696;55.698;37.460;2023-07-30T00:38:44;98528.09;;;14.05;98.59
44027;BME280;29696;55.698;37.460;2023-07-30T00:41:10;98529.09;;;14.04;98.60
44027;BME280;29696;55.698;37.460;2023-07-30T00:43:37;98523.78;;;14.04;98.74
44027;BME280;29696;55.698;37.460;2023-07-30T00:46:03;98527.28;;;14.04;98.67
44027;BME280;29696;55.698;37.460;2023-07-30T00:48:31;98527.44;;;14.03;98.63
44027;BME280;29696;55.698;37.460;2023-07-30T00:50:58;98526.97;;;13.99;98.41
44027;BME280;29696;55.698;37.460;2023-07-30T00:53:29;98520.69;;;14.00;98.42
44027;BME280;29696;55.698;37.460;2023-07-30T00:55:56;98515.09;;;13.95;98.39
44027;BME280;29696;55.698;37.460;2023-07-30T00:58:23;98525.06;;;13.93;98.37
44027;BME280;29696;55.698;37.460;2023-07-30T01:00:51;98520.75;;;13.92;98.60
44027;BME280;29696;55.698;37.460;2023-07-30T01:03:44;98517.47;;;13.90;98.59
44027;BME280;29696;55.698;37.460;2023-07-30T01:06:10;98506.38;;;13.86;98.71
44027;BME280;29696;55.698;37.460;2023-07-30T01:08:37;98515.81;;;13.89;98.88
44027;BME280;29696;55.698;37.460;2023-07-30T01:11:05;98512.50;;;13.87;99.10
44027;BME280;29696;55.698;37.460;2023-07-30T01:13:33;98512.50;;;13.87;99.21
44027;BME280;29696;55.698;37.460;2023-07-30T01:16:00;98510.22;;;13.84;99.03
44027;BME280;29696;55.698;37.460;2023-07-30T01:18:26;98517.16;;;13.85;99.17
44027;BME280;29696;55.698;37.460;2023-07-30T01:20:53;98502.63;;;13.81;99.28
44027;BME280;29696;55.698;37.460;2023-07-30T01:23:20;98507.13;;;13.80;99.28
44027;BME280;29696;55.698;37.460;2023-07-30T01:25:50;98511.25;;;13.83;99.41
44027;BME280;29696;55.698;37.460;2023-07-30T01:28:25;98496.03;;;13.77;99.44
44027;BME280;29696;55.698;37.460;2023-07-30T01:30:54;98512.59;;;13.79;99.41
44027;BME280;29696;55.698;37.460;2023-07-30T01:33:21;98505.00;;;13.76;99.51
44027;BME280;29696;55.698;37.460;2023-07-30T01:35:49;98500.91;;;13.73;99.52
44027;BME280;29696;55.698;37.460;2023-07-30T01:38:16;98493.91;;;13.72;99.17
44027;BME280;29696;55.698;37.460;2023-07-30T01:40:43;98493.16;;;13.63;99.18
44027;BME280;29696;55.698;37.460;2023-07-30T01:43:10;98506.09;;;13.66;99.15
44027;BME280;29696;55.698;37.460;2023-07-30T01:45:36;98500.50;;;13.61;99.02
44027;BME280;29696;55.698;37.460;2023-07-30T01:48:03;98510.13;;;13.62;99.47
44027;BME280;29696;55.698;37.460;2023-07-30T01:50:29;98507.81;;;13.59;99.52
44027;BME280;29696;55.698;37.460;2023-07-30T01:52:55;98513.13;;;13.59;99.60
44027;BME280;29696;55.698;37.460;2023-07-30T01:55:22;98525.38;;;13.60;99.57
44027;BME280;29696;55.698;37.460;2023-07-30T01:57:48;98519.25;;;13.60;99.74
44027;BME280;29696;55.698;37.460;2023-07-30T02:00:15;98519.25;;;13.60;99.94
44027;BME280;29696;55.698;37.460;2023-07-30T02:02:41;98514.97;;;13.59;100.00
44027;BME280;29696;55.698;37.460;2023-07-30T02:05:08;98511.28;;;13.60;99.87
44027;BME280;29696;55.698;37.460;2023-07-30T02:07:34;98524.84;;;13.65;99.94
44027;BME280;29696;55.698;37.460;2023-07-30T02:10:00;98515.06;;;13.65;99.93
44027;BME280;29696;55.698;37.460;2023-07-30T02:12:31;98517.53;;;13.67;99.76
44027;BME280;29696;55.698;37.460;2023-07-30T02:14:57;98524.50;;;13.68;99.63
44027;BME280;29696;55.698;37.460;2023-07-30T02:17:24;98528.63;;;13.70;99.54
44027;BME280;29696;55.698;37.460;2023-07-30T02:20:10;98527.59;;;13.72;99.24
44027;BME280;29696;55.698;37.460;2023-07-30T02:22:37;98527.25;;;13.75;99.15
44027;BME280;29696;55.698;37.460;2023-07-30T02:25:04;98534.19;;;13.76;99.00
44027;BME280;29696;55.698;37.460;2023-07-30T02:27:30;98533.66;;;13.80;98.66
44027;BME280;29696;55.698;37.460;2023-07-30T02:29:57;98534.47;;;13.81;98.83
44027;BME280;29696;55.698;37.460;2023-07-30T02:32:23;98538.41;;;13.85;98.66
44027;BME280;29696;55.698;37.460;2023-07-30T02:34:50;98543.34;;;13.88;98.41
44027;BME280;29696;55.698;37.460;2023-07-30T02:37:16;98534.03;;;13.92;98.36
44027;BME280;29696;55.698;37.460;2023-07-30T02:39:42;98535.69;;;13.93;97.96
44027;BME280;29696;55.698;37.460;2023-07-30T02:42:09;98539.63;;;13.97;97.87
44027;BME280;29696;55.698;37.460;2023-07-30T02:44:35;98536.63;;;14.00;97.35
44027;BME280;29696;55.698;37.460;2023-07-30T02:47:01;98541.19;;;14.06;96.93
44027;BME280;29696;55.698;37.460;2023-07-30T02:49:28;98545.94;;;14.11;96.62
44027;BME280;29696;55.698;37.460;2023-07-30T02:51:54;98545.41;;;14.15;96.23
44027;BME280;29696;55.698;37.460;2023-07-30T02:54:21;98547.34;;;14.22;95.80
44027;BME280;29696;55.698;37.460;2023-07-30T02:56:48;98546.50;;;14.36;95.79
44027;BME280;29696;55.698;37.460;2023-07-30T02:59:14;98545.19;;;14.47;95.27
44027;BME280;29696;55.698;37.460;2023-07-30T03:01:41;98548.94;;;14.67;94.55
44027;BME280;29696;55.698;37.460;2023-07-30T03:04:07;98556.28;;;15.01;93.33
44027;BME280;29696;55.698;37.460;2023-07-30T03:06:33;98555.97;;;15.54;92.55
44027;BME280;29696;55.698;37.460;2023-07-30T03:09:00;98558.22;;;16.07;89.57
44027;BME280;29696;55.698;37.460;2023-07-30T03:11:26;98560.19;;;16.74;85.78
44027;BME280;29696;55.698;37.460;2023-07-30T03:13:53;98556.69;;;17.42;83.95
44027;BME280;29696;55.698;37.460;2023-07-30T03:16:19;98551.09;;;18.16;80.50
44027;BME280;29696;55.698;37.460;2023-07-30T03:18:45;98552.78;;;18.76;74.42
44027;BME280;29696;55.698;37.460;2023-07-30T03:21:12;98562.22;;;18.85;73.21
44027;BME280;29696;55.698;37.460;2023-07-30T03:23:40;98556.44;;;18.88;72.08
44027;BME280;29696;55.698;37.460;2023-07-30T03:26:07;98564.50;;;19.13;69.89
44027;BME280;29696;55.698;37.460;2023-07-30T03:28:33;98557.31;;;19.70;68.73
44027;BME280;29696;55.698;37.460;2023-07-30T03:31:00;98562.50;;;20.70;64.77
44027;BME280;29696;55.698;37.460;2023-07-30T03:33:26;98562.34;;;21.56;61.91
44027;BME280;29696;55.698;37.460;2023-07-30T03:35:53;98561.34;;;22.27;59.66
44027;BME280;29696;55.698;37.460;2023-07-30T03:38:19;98575.94;;;22.55;57.88
44027;BME280;29696;55.698;37.460;2023-07-30T03:40:45;98568.75;;;22.72;56.42
44027;BME280;29696;55.698;37.460;2023-07-30T03:43:12;98570.59;;;22.95;55.47
44027;BME280;29696;55.698;37.460;2023-07-30T03:45:39;98571.34;;;23.53;53.62
44027;BME280;29696;55.698;37.460;2023-07-30T03:48:06;98574.81;;;23.82;52.87
44027;BME280;29696;55.698;37.460;2023-07-30T03:50:33;98569.97;;;24.01;52.27
44027;BME280;29696;55.698;37.460;2023-07-30T03:53:00;98573.81;;;23.88;52.25
44027;BME280;29696;55.698;37.460;2023-07-30T03:55:26;98566.94;;;23.81;52.15
44027;BME280;29696;55.698;37.460;2023-07-30T03:57:53;98577.19;;;24.51;51.02
44027;BME280;29696;55.698;37.460;2023-07-30T04:00:19;98574.66;;;25.38;48.68
44027;BME280;29696;55.698;37.460;2023-07-30T04:02:45;98581.31;;;26.27;46.01
44027;BME280;29696;55.698;37.460;2023-07-30T04:05:12;98573.47;;;26.88;45.02
44027;BME280;29696;55.698;37.460;2023-07-30T04:07:38;98579.28;;;27.17;44.13
44027;BME280;29696;55.698;37.460;2023-07-30T04:10:05;98580.41;;;27.57;43.31
44027;BME280;29696;55.698;37.460;2023-07-30T04:12:31;98585.00;;;28.33;41.49
44027;BME280;29696;55.698;37.460;2023-07-30T04:14:58;98580.13;;;29.50;39.64
44027;BME280;29696;55.698;37.460;2023-07-30T04:17:27;98582.72;;;29.99;38.15
44027;BME280;29696;55.698;37.460;2023-07-30T04:19:53;98581.53;;;30.40;36.70
44027;BME280;29696;55.698;37.460;2023-07-30T04:22:19;98586.97;;;31.26;35.52
44027;BME280;29696;55.698;37.460;2023-07-30T04:24:46;98589.66;;;32.15;34.33
44027;BME280;29696;55.698;37.460;2023-07-30T04:27:13;98588.94;;;32.56;33.48
44027;BME280;29696;55.698;37.460;2023-07-30T04:29:39;98595.69;;;32.31;33.34
44027;BME280;29696;55.698;37.460;2023-07-30T04:32:06;98597.53;;;32.63;32.90
44027;BME280;29696;55.698;37.460;2023-07-30T04:34:58;98595.84;;;33.17;32.02
44027;BME280;29696;55.698;37.460;2023-07-30T04:37:25;98599.16;;;33.64;31.30
44027;BME280;29696;55.698;37.460;2023-07-30T04:39:53;98604.09;;;34.30;30.32
44027;BME280;29696;55.698;37.460;2023-07-30T04:42:19;98599.84;;;35.04;29.31
44027;BME280;29696;55.698;37.460;2023-07-30T04:44:47;98596.66;;;35.19;28.69
44027;BME280;29696;55.698;37.460;2023-07-30T04:47:16;98599.09;;;35.38;28.68
44027;BME280;29696;55.698;37.460;2023-07-30T04:49:42;98603.16;;;35.75;27.73
44027;BME280;29696;55.698;37.460;2023-07-30T04:52:10;98608.78;;;36.05;27.60
44027;BME280;29696;55.698;37.460;2023-07-30T04:54:36;98609.69;;;36.18;27.65
44027;BME280;29696;55.698;37.460;2023-07-30T04:57:04;98602.97;;;35.28;27.92
44027;BME280;29696;55.698;37.460;2023-07-30T04:59:30;98601.16;;;35.15;28.53
44027;BME280;29696;55.698;37.460;2023-07-30T05:01:57;98608.44;;;35.80;27.13
44027;BME280;29696;55.698;37.460;2023-07-30T05:04:23;98605.84;;;35.23;28.47
44027;BME280;29696;55.698;37.460;2023-07-30T05:06:50;98605.03;;;35.14;28.58
44027;BME280;29696;55.698;37.460;2023-07-30T05:09:16;98611.19;;;34.31;29.06
44027;BME280;29696;55.698;37.460;2023-07-30T05:11:42;98612.88;;;33.64;30.02
44027;BME280;29696;55.698;37.460;2023-07-30T05:14:09;98616.25;;;33.84;30.05
44027;BME280;29696;55.698;37.460;2023-07-30T05:16:35;98621.59;;;33.30;30.87
44027;BME280;29696;55.698;37.460;2023-07-30T05:19:02;98622.16;;;32.49;32.32
44027;BME280;29696;55.698;37.460;2023-07-30T05:21:28;98625.63;;;32.36;32.94
44027;BME280;29696;55.698;37.460;2023-07-30T05:23:55;98627.94;;;32.15;32.48
44027;BME280;29696;55.698;37.460;2023-07-30T05:26:21;98627.66;;;32.17;32.86
44027;BME280;29696;55.698;37.460;2023-07-30T05:28:47;98636.41;;;31.81;33.50
44027;BME280;29696;55.698;37.460;2023-07-30T05:31:14;98626.31;;;31.44;33.30
44027;BME280;29696;55.698;37.460;2023-07-30T05:33:40;98629.06;;;32.14;33.54
44027;BME280;29696;55.698;37.460;2023-07-30T05:36:07;98626.50;;;32.92;32.13
44027;BME280;29696;55.698;37.460;2023-07-30T05:38:34;98619.09;;;32.79;31.57
44027;BME280;29696;55.698;37.460;2023-07-30T05:41:00;98635.50;;;32.79;32.50
44027;BME280;29696;55.698;37.460;2023-07-30T05:43:26;98625.88;;;32.81;32.73
44027;BME280;29696;55.698;37.460;2023-07-30T05:45:53;98619.72;;;33.03;32.44
44027;BME280;29696;55.698;37.460;2023-07-30T05:48:19;98619.81;;;33.12;32.43
44027;BME280;29696;55.698;37.460;2023-07-30T05:50:46;98633.09;;;32.77;32.63
44027;BME280;29696;55.698;37.460;2023-07-30T05:53:12;98631.06;;;34.05;30.87
44027;BME280;29696;55.698;37.460;2023-07-30T05:55:38;98629.28;;;34.63;29.63
44027;BME280;29696;55.698;37.460;2023-07-30T05:58:05;98624.00;;;35.67;28.42
44027;BME280;29696;55.698;37.460;2023-07-30T06:00:31;98627.97;;;36.69;27.22
44027;BME280;29696;55.698;37.460;2023-07-30T06:02:57;98630.38;;;38.05;26.02
44027;BME280;29696;55.698;37.460;2023-07-30T06:05:24;98622.22;;;38.67;24.61
44027;BME280;29696;55.698;37.460;2023-07-30T06:07:50;98613.78;;;39.93;22.91
44027;BME280;29696;55.698;37.460;2023-07-30T06:10:17;98625.28;;;41.22;21.43
44027;BME280;29696;55.698;37.460;2023-07-30T06:12:43;98621.81;;;42.26;21.33
44027;BME280;29696;55.698;37.460;2023-07-30T06:15:10;98610.88;;;42.33;20.13
44027;BME280;29696;55.698;37.460;2023-07-30T06:17:36;98609.31;;;42.81;19.41
44027;BME280;29696;55.698;37.460;2023-07-30T06:20:03;98607.69;;;43.37;19.11
44027;BME280;29696;55.698;37.460;2023-07-30T06:22:31;98599.75;;;43.09;18.82
44027;BME280;29696;55.698;37.460;2023-07-30T06:24:58;98587.44;;;43.37;19.09
44027;BME280;29696;55.698;37.460;2023-07-30T06:27:25;98600.50;;;44.00;18.68
44027;BME280;29696;55.698;37.460;2023-07-30T06:29:51;98594.34;;;43.84;18.45
44027;BME280;29696;55.698;37.460;2023-07-30T06:32:17;98596.91;;;44.00;18.23
44027;BME280;29696;55.698;37.460;2023-07-30T06:34:44;98587.75;;;43.31;18.33
44027;BME280;29696;55.698;37.460;2023-07-30T06:37:10;98585.69;;;43.25;18.56
44027;BME280;29696;55.698;37.460;2023-07-30T06:39:37;98584.19;;;43.65;19.32
44027;BME280;29696;55.698;37.460;2023-07-30T06:42:03;98584.25;;;44.06;17.82
44027;BME280;29696;55.698;37.460;2023-07-30T06:44:29;98583.38;;;43.61;18.25
44027;BME280;29696;55.698;37.460;2023-07-30T06:46:56;98583.66;;;43.22;18.46
44027;BME280;29696;55.698;37.460;2023-07-30T06:49:22;98591.09;;;43.44;17.87
44027;BME280;29696;55.698;37.460;2023-07-30T06:51:49;98575.88;;;43.35;18.19
44027;BME280;29696;55.698;37.460;2023-07-30T06:54:15;98577.03;;;43.64;18.42
44027;BME280;29696;55.698;37.460;2023-07-30T06:56:42;98577.41;;;43.96;17.91
44027;BME280;29696;55.698;37.460;2023-07-30T06:59:08;98570.88;;;44.22;16.93
44027;BME280;29696;55.698;37.460;2023-07-30T07:01:34;98570.84;;;43.78;17.36
44027;BME280;29696;55.698;37.460;2023-07-30T07:04:01;98570.81;;;43.74;17.58
44027;BME280;29696;55.698;37.460;2023-07-30T07:06:27;98567.22;;;44.14;18.16
44027;BME280;29696;55.698;37.460;2023-07-30T07:08:54;98570.75;;;44.52;17.58
44027;BME280;29696;55.698;37.460;2023-07-30T07:11:20;98563.63;;;43.73;18.26
44027;BME280;29696;55.698;37.460;2023-07-30T07:13:46;98572.34;;;44.09;16.97
44027;BME280;29696;55.698;37.460;2023-07-30T07:16:13;98571.53;;;44.53;17.02
44027;BME280;29696;55.698;37.460;2023-07-30T07:18:40;98581.41;;;45.05;16.81
44027;BME280;29696;55.698;37.460;2023-07-30T07:21:06;98572.09;;;45.53;16.25
44027;BME280;29696;55.698;37.460;2023-07-30T07:23:32;98568.66;;;46.17;15.50
44027;BME280;29696;55.698;37.460;2023-07-30T07:25:59;98569.06;;;46.44;15.55
44027;BME280;29696;55.698;37.460;2023-07-30T07:28:25;98569.44;;;46.46;15.30
44027;BME280;29696;55.698;37.460;2023-07-30T07:30:52;98571.03;;;46.69;15.22
44027;BME280;29696;55.698;37.460;2023-07-30T07:33:18;98557.00;;;46.90;15.44
44027;BME280;29696;55.698;37.460;2023-07-30T07:35:44;98560.19;;;45.74;15.91
44027;BME280;29696;55.698;37.460;2023-07-30T07:38:11;98559.88;;;44.95;16.64
44027;BME280;29696;55.698;37.460;2023-07-30T07:40:38;98572.78;;;45.21;16.97
44027;BME280;29696;55.698;37.460;2023-07-30T07:43:08;98567.63;;;45.30;16.64
44027;BME280;29696;55.698;37.460;2023-07-30T07:45:35;98554.91;;;44.67;17.02
44027;BME280;29696;55.698;37.460;2023-07-30T07:48:01;98553.69;;;44.13;17.58
44027;BME280;29696;55.698;37.460;2023-07-30T07:50:28;98556.38;;;43.65;17.63
44027;BME280;29696;55.698;37.460;2023-07-30T07:52:54;98550.19;;;41.27;18.81
44027;BME280;29696;55.698;37.460;2023-07-30T07:55:21;98540.50;;;40.82;20.35
44027;BME280;29696;55.698;37.460;2023-07-30T07:57:47;98545.59;;;41.35;20.21
44027;BME280;29696;55.698;37.460;2023-07-30T08:00:13;98545.44;;;41.27;20.25
44027;BME280;29696;55.698;37.460;2023-07-30T08:02:42;98543.13;;;42.14;19.07
44027;BME280;29696;55.698;37.460;2023-07-30T08:05:08;98542.88;;;42.46;18.54
44027;BME280;29696;55.698;37.460;2023-07-30T08:07:35;98539.47;;;42.83;18.55
44027;BME280;29696;55.698;37.460;2023-07-30T08:10:01;98537.56;;;42.14;19.05
44027;BME280;29696;55.698;37.460;2023-07-30T08:12:32;98551.63;;;39.59;21.05
44027;BME280;29696;55.698;37.460;2023-07-30T08:14:59;98539.22;;;39.68;20.48
44027;BME280;29696;55.698;37.460;2023-07-30T08:17:25;98548.13;;;40.69;19.98
44027;BME280;29696;55.698;37.460;2023-07-30T08:19:52;98550.41;;;39.03;20.12
44027;BME280;29696;55.698;37.460;2023-07-30T08:22:18;98539.50;;;37.97;20.84
44027;BME280;29696;55.698;37.460;2023-07-30T08:24:45;98537.31;;;36.64;23.25
44027;BME280;29696;55.698;37.460;2023-07-30T08:27:11;98525.16;;;34.58;26.42
44027;BME280;29696;55.698;37.460;2023-07-30T08:29:37;98544.28;;;35.76;26.11
44027;BME280;29696;55.698;37.460;2023-07-30T08:32:04;98541.13;;;36.81;25.49
44027;BME280;29696;55.698;37.460;2023-07-30T08:34:32;98543.22;;;36.84;25.38
44027;BME280;29696;55.698;37.460;2023-07-30T08:36:58;98546.25;;;36.61;25.14
44027;BME280;29696;55.698;37.460;2023-07-30T08:39:24;98538.94;;;35.54;26.85
44027;BME280;29696;55.698;37.460;2023-07-30T08:41:51;98540.13;;;35.18;27.38
44027;BME280;29696;55.698;37.460;2023-07-30T08:44:17;98540.91;;;33.73;28.68
44027;BME280;29696;55.698;37.460;2023-07-30T08:46:44;98534.50;;;32.82;30.01
44027;BME280;29696;55.698;37.460;2023-07-30T08:49:10;98535.13;;;32.38;31.16
44027;BME280;29696;55.698;37.460;2023-07-30T08:51:37;98538.50;;;31.55;31.30
44027;BME280;29696;55.698;37.460;2023-07-30T08:54:04;98536.59;;;30.80;33.77
44027;BME280;29696;55.698;37.460;2023-07-30T08:56:31;98542.66;;;30.00;33.45
44027;BME280;29696;55.698;37.460;2023-07-30T08:58:58;98544.75;;;29.50;34.36
44027;BME280;29696;55.698;37.460;2023-07-30T09:01:30;98545.22;;;29.23;37.03
44027;BME280;29696;55.698;37.460;2023-07-30T09:04:00;98542.31;;;28.49;36.90
44027;BME280;29696;55.698;37.460;2023-07-30T09:06:26;98549.75;;;27.67;37.77
44027;BME280;29696;55.698;37.460;2023-07-30T09:08:53;98542.91;;;27.13;39.61
44027;BME280;29696;55.698;37.460;2023-07-30T09:11:19;98551.78;;;26.78;38.58
44027;BME280;29696;55.698;37.460;2023-07-30T09:13:46;98562.81;;;26.61;39.74
44027;BME280;29696;55.698;37.460;2023-07-30T09:16:14;98557.44;;;26.66;39.50
44027;BME280;29696;55.698;37.460;2023-07-30T09:18:45;98554.25;;;26.90;40.38
44027;BME280;29696;55.698;37.460;2023-07-30T09:21:13;98555.84;;;26.80;38.93
44027;BME280;29696;55.698;37.460;2023-07-30T09:23:41;98551.75;;;26.73;39.03
44027;BME280;29696;55.698;37.460;2023-07-30T09:26:08;98560.31;;;26.49;38.40
44027;BME280;29696;55.698;37.460;2023-07-30T09:28:35;98565.88;;;26.32;39.89
44027;BME280;29696;55.698;37.460;2023-07-30T09:31:05;98567.41;;;26.13;40.74
44027;BME280;29696;55.698;37.460;2023-07-30T09:33:32;98566.13;;;25.83;40.78
44027;BME280;29696;55.698;37.460;2023-07-30T09:36:02;98573.31;;;26.05;42.34
44027;BME280;29696;55.698;37.460;2023-07-30T09:38:29;98558.78;;;26.16;41.30
44027;BME280;29696;55.698;37.460;2023-07-30T09:41:02;98566.00;;;26.48;39.91
44027;BME280;29696;55.698;37.460;2023-07-30T09:43:32;98571.50;;;26.68;41.20
44027;BME280;29696;55.698;37.460;2023-07-30T09:46:06;98566.16;;;26.89;39.87
44027;BME280;29696;55.698;37.460;2023-07-30T09:48:34;98568.03;;;26.78;40.55
44027;BME280;29696;55.698;37.460;2023-07-30T09:51:03;98566.44;;;26.87;40.01
44027;BME280;29696;55.698;37.460;2023-07-30T09:53:31;98568.09;;;26.98;40.30
44027;BME280;29696;55.698;37.460;2023-07-30T09:56:04;98571.56;;;26.89;38.72
44027;BME280;29696;55.698;37.460;2023-07-30T09:58:33;98565.50;;;26.51;37.66
44027;BME280;29696;55.698;37.460;2023-07-30T10:01:02;98574.53;;;26.24;40.14
44027;BME280;29696;55.698;37.460;2023-07-30T10:03:32;98574.66;;;26.02;40.58
44027;BME280;29696;55.698;37.460;2023-07-30T10:06:03;98563.44;;;25.83;41.52
44027;BME280;29696;55.698;37.460;2023-07-30T10:08:36;98570.78;;;25.88;41.84
44027;BME280;29696;55.698;37.460;2023-07-30T10:11:07;98559.78;;;26.05;43.85
44027;BME280;29696;55.698;37.460;2023-07-30T10:13:35;98561.97;;;26.08;40.51
44027;BME280;29696;55.698;37.460;2023-07-30T10:16:02;98566.00;;;26.05;41.26
44027;BME280;29696;55.698;37.460;2023-07-30T10:18:42;98577.81;;;26.31;41.80
44027;BME280;29696;55.698;37.460;2023-07-30T10:21:11;98577.41;;;26.07;40.57
44027;BME280;29696;55.698;37.460;2023-07-30T10:24:04;98576.31;;;26.08;38.72
44027;BME280;29696;55.698;37.460;2023-07-30T10:26:33;98573.06;;;25.74;41.94
44027;BME280;29696;55.698;37.460;2023-07-30T10:29:24;98567.88;;;25.67;42.14
44027;BME280;29696;55.698;37.460;2023-07-30T10:31:55;98576.88;;;25.78;41.16
44027;BME280;29696;55.698;37.460;2023-07-30T10:34:26;98565.31;;;25.83;40.45
44027;BME280;29696;55.698;37.460;2023-07-30T10:36:55;98570.41;;;25.79;40.44
44027;BME280;29696;55.698;37.460;2023-07-30T10:39:28;98582.38;;;25.83;40.43
44027;BME280;29696;55.698;37.460;2023-07-30T10:41:56;98583.03;;;25.68;41.46
44027;BME280;29696;55.698;37.460;2023-07-30T10:44:28;98580.16;;;25.80;42.00
44027;BME280;29696;55.698;37.460;2023-07-30T10:46:56;98574.81;;;25.90;40.14
44027;BME280;29696;55.698;37.460;2023-07-30T10:49:23;98567.31;;;25.98;39.34
44027;BME280;29696;55.698;37.460;2023-07-30T10:51:55;98570.34;;;26.06;40.09
44027;BME280;29696;55.698;37.460;2023-07-30T10:54:23;98569.47;;;25.95;39.86
44027;BME280;29696;55.698;37.460;2023-07-30T10:56:50;98561.94;;;25.70;38.87
44027;BME280;29696;55.698;37.460;2023-07-30T10:59:17;98570.72;;;25.23;39.88
44027;BME280;29696;55.698;37.460;2023-07-30T11:01:45;98575.91;;;24.81;40.88
44027;BME280;29696;55.698;37.460;2023-07-30T11:04:15;98576.75;;;24.59;41.72
44027;BME280;29696;55.698;37.460;2023-07-30T11:06:49;98572.66;;;24.57;43.20
44027;BME280;29696;55.698;37.460;2023-07-30T11:09:39;98574.47;;;24.73;42.46
44027;BME280;29696;55.698;37.460;2023-07-30T11:12:08;98570.56;;;24.64;43.70
44027;BME280;29696;55.698;37.460;2023-07-30T11:14:35;98566.38;;;24.51;43.90
44027;BME280;29696;55.698;37.460;2023-07-30T11:17:02;98571.03;;;24.39;44.76
44027;BME280;29696;55.698;37.460;2023-07-30T11:19:29;98590.69;;;24.34;44.88
44027;BME280;29696;55.698;37.460;2023-07-30T11:21:57;98584.47;;;24.34;43.81
44027;BME280;29696;55.698;37.460;2023-07-30T11:24:36;98576.25;;;24.63;44.89
44027;BME280;29696;55.698;37.460;2023-07-30T11:27:04;98569.53;;;24.65;44.39
44027;BME280;29696;55.698;37.460;2023-07-30T11:29:31;98561.63;;;24.86;43.39
44027;BME280;29696;55.698;37.460;2023-07-30T11:31:59;98566.97;;;25.02;42.91
44027;BME280;29696;55.698;37.460;2023-07-30T11:34:26;98566.19;;;25.29;43.18
44027;BME280;29696;55.698;37.460;2023-07-30T11:36:54;98578.00;;;25.50;40.73
44027;BME280;29696;55.698;37.460;2023-07-30T11:39:23;98576.75;;;25.63;38.55
44027;BME280;29696;55.698;37.460;2023-07-30T11:41:50;98578.09;;;25.60;39.77
44027;BME280;29696;55.698;37.460;2023-07-30T11:44:36;98577.97;;;25.77;40.06
44027;BME280;29696;55.698;37.460;2023-07-30T11:47:05;98585.34;;;25.55;40.25
44027;BME280;29696;55.698;37.460;2023-07-30T11:49:31;98568.28;;;25.49;41.89
44027;BME280;29696;55.698;37.460;2023-07-30T11:52:08;98572.44;;;25.62;40.84
44027;BME280;29696;55.698;37.460;2023-07-30T11:54:35;98573.00;;;25.37;40.76
44027;BME280;29696;55.698;37.460;2023-07-30T11:57:02;98584.69;;;25.42;41.92
44027;BME280;29696;55.698;37.460;2023-07-30T11:59:30;98592.63;;;25.49;39.31
44027;BME280;29696;55.698;37.460;2023-07-30T12:01:57;98588.38;;;25.31;40.43
44027;BME280;29696;55.698;37.460;2023-07-30T12:04:24;98581.66;;;25.12;39.39
44027;BME280;29696;55.698;37.460;2023-07-30T12:06:52;98586.97;;;25.01;39.56
44027;BME280;29696;55.698;37.460;2023-07-30T12:09:23;98584.69;;;24.93;39.71
44027;BME280;29696;55.698;37.460;2023-07-30T12:11:53;98586.47;;;24.82;39.75
44027;BME280;29696;55.698;37.460;2023-07-30T12:14:22;98585.91;;;24.80;41.04
44027;BME280;29696;55.698;37.460;2023-07-30T12:16:52;98570.72;;;24.74;40.88
44027;BME280;29696;55.698;37.460;2023-07-30T12:19:18;98569.88;;;24.74;40.88
44027;BME280;29696;55.698;37.460;2023-07-30T12:21:44;98575.28;;;24.74;41.20
44027;BME280;29696;55.698;37.460;2023-07-30T12:24:11;98572.34;;;24.75;41.45
44027;BME280;29696;55.698;37.460;2023-07-30T12:26:37;98577.38;;;24.67;38.84
44027;BME280;29696;55.698;37.460;2023-07-30T12:29:03;98582.66;;;24.56;39.77
44027;BME280;29696;55.698;37.460;2023-07-30T12:31:30;98586.97;;;24.57;40.69
44027;BME280;29696;55.698;37.460;2023-07-30T12:33:56;98586.41;;;24.55;41.69
44027;BME280;29696;55.698;37.460;2023-07-30T12:36:23;98582.09;;;24.37;42.28
44027;BME280;29696;55.698;37.460;2023-07-30T12:38:49;98580.16;;;24.33;41.84
44027;BME280;29696;55.698;37.460;2023-07-30T12:41:18;98579.84;;;24.29;41.83
44027;BME280;29696;55.698;37.460;2023-07-30T12:43:55;98595.09;;;24.41;42.39
44027;BME280;29696;55.698;37.460;2023-07-30T12:46:25;98581.28;;;24.37;41.30
44027;BME280;29696;55.698;37.460;2023-07-30T12:48:56;98583.88;;;24.32;40.96
44027;BME280;29696;55.698;37.460;2023-07-30T12:51:23;98589.16;;;24.22;41.84
44027;BME280;29696;55.698;37.460;2023-07-30T12:53:49;98590.94;;;24.33;42.92